sensor_id;sensor_type;location;lat;lon;timestamp;P1;durP1;ratioP1;P2;durP2;ratioP2
3066;SDS011;1544;48.834;9.194;2023-11-21T00:00:39;3.93;;;1.57;;
3066;SDS011;1544;48.834;9.194;2023-11-21T00:03:16;6.43;;;1.50;;
3066;SDS011;1544;48.834;9.194;2023-11-21T00:05:52;5.17;;;1.47;;
3066;SDS011;1544;48.834;9.194;2023-11-21T00:08:28;2.47;;;1.27;;
3066;SDS011;1544;48.834;9.194;2023-11-21T00:11:05;5.57;;;1.90;;
3066;SDS011;1544;48.834;9.194;2023-11-21T00:13:41;1.70;;;1.20;;
3066;SDS011;1544;48.834;9.194;2023-11-21T00:16:17;2.37;;;1.30;;
3066;SDS011;1544;48.834;9.194;2023-11-21T00:18:53;3.93;;;1.10;;
3066;SDS011;1544;48.834;9.194;2023-11-21T00:21:29;2.50;;;1.10;;
3066;SDS011;1544;48.834;9.194;2023-11-21T00:24:05;6.90;;;1.23;;
3066;SDS011;1544;48.834;9.194;2023-11-21T00:26:42;2.23;;;1.00;;
3066;SDS011;1544;48.834;9.194;2023-11-21T00:29:18;2.53;;;1.10;;
3066;SDS011;1544;48.834;9.194;2023-11-21T00:31:54;1.80;;;0.90;;
3066;SDS011;1544;48.834;9.194;2023-11-21T00:34:30;1.10;;;1.00;;
3066;SDS011;1544;48.834;9.194;2023-11-21T00:37:08;2.73;;;1.00;;
3066;SDS011;1544;48.834;9.194;2023-11-21T00:39:44;2.63;;;1.00;;
3066;SDS011;1544;48.834;9.194;2023-11-21T00:42:20;1.00;;;0.90;;
3066;SDS011;1544;48.834;9.194;2023-11-21T00:44:57;1.87;;;0.90;;
3066;SDS011;1544;48.834;9.194;2023-11-21T00:47:33;1.57;;;1.00;;
3066;SDS011;1544;48.834;9.194;2023-11-21T00:50:09;3.00;;;1.00;;
3066;SDS011;1544;48.834;9.194;2023-11-21T00:52:45;2.77;;;1.60;;
3066;SDS011;1544;48.834;9.194;2023-11-21T00:55:21;1.63;;;1.03;;
3066;SDS011;1544;48.834;9.194;2023-11-21T00:57:59;2.30;;;1.03;;
3066;SDS011;1544;48.834;9.194;2023-11-21T01:00:35;2.30;;;1.00;;
3066;SDS011;1544;48.834;9.194;2023-11-21T01:03:11;1.43;;;0.97;;
3066;SDS011;1544;48.834;9.194;2023-11-21T01:05:47;1.90;;;1.10;;
3066;SDS011;1544;48.834;9.194;2023-11-21T01:08:25;1.27;;;0.80;;
3066;SDS011;1544;48.834;9.194;2023-11-21T01:11:01;3.90;;;0.93;;
3066;SDS011;1544;48.834;9.194;2023-11-21T01:13:40;2.43;;;0.93;;
3066;SDS011;1544;48.834;9.194;2023-11-21T01:16:17;1.77;;;0.93;;
3066;SDS011;1544;48.834;9.194;2023-11-21T01:18:53;1.50;;;1.00;;
3066;SDS011;1544;48.834;9.194;2023-11-21T01:21:29;2.57;;;1.10;;
3066;SDS011;1544;48.834;9.194;2023-11-21T01:24:06;3.20;;;1.00;;
3066;SDS011;1544;48.834;9.194;2023-11-21T01:26:42;2.27;;;1.00;;
3066;SDS011;1544;48.834;9.194;2023-11-21T01:29:20;2.27;;;1.10;;
3066;SDS011;1544;48.834;9.194;2023-11-21T01:31:57;1.70;;;1.00;;
3066;SDS011;1544;48.834;9.194;2023-11-21T01:34:33;1.33;;;1.00;;
3066;SDS011;1544;48.834;9.194;2023-11-21T01:37:09;2.63;;;0.90;;
3066;SDS011;1544;48.834;9.194;2023-11-21T01:39:48;3.93;;;1.20;;
3066;SDS011;1544;48.834;9.194;2023-11-21T01:42:24;1.57;;;0.90;;
3066;SDS011;1544;48.834;9.194;2023-11-21T01:45:00;3.17;;;1.00;;
3066;SDS011;1544;48.834;9.194;2023-11-21T01:47:40;1.50;;;0.87;;
3066;SDS011;1544;48.834;9.194;2023-11-21T01:50:18;1.30;;;0.93;;
3066;SDS011;1544;48.834;9.194;2023-11-21T01:52:55;2.83;;;0.80;;
3066;SDS011;1544;48.834;9.194;2023-11-21T01:55:32;1.37;;;1.00;;
3066;SDS011;1544;48.834;9.194;2023-11-21T01:58:09;1.83;;;0.67;;
3066;SDS011;1544;48.834;9.194;2023-11-21T02:00:48;2.57;;;0.90;;
3066;SDS011;1544;48.834;9.194;2023-11-21T02:03:26;0.67;;;0.67;;
3066;SDS011;1544;48.834;9.194;2023-11-21T02:06:02;0.90;;;0.80;;
3066;SDS011;1544;48.834;9.194;2023-11-21T02:08:38;1.80;;;1.00;;
3066;SDS011;1544;48.834;9.194;2023-11-21T02:11:15;2.13;;;0.70;;
3066;SDS011;1544;48.834;9.194;2023-11-21T02:13:51;1.53;;;0.83;;
3066;SDS011;1544;48.834;9.194;2023-11-21T02:16:29;2.03;;;0.90;;
3066;SDS011;1544;48.834;9.194;2023-11-21T02:19:07;1.73;;;0.83;;
3066;SDS011;1544;48.834;9.194;2023-11-21T02:21:45;1.33;;;0.80;;
3066;SDS011;1544;48.834;9.194;2023-11-21T02:24:23;0.80;;;0.80;;
3066;SDS011;1544;48.834;9.194;2023-11-21T02:26:59;3.80;;;1.37;;
3066;SDS011;1544;48.834;9.194;2023-11-21T02:29:35;1.57;;;0.73;;
3066;SDS011;1544;48.834;9.194;2023-11-21T02:32:11;1.90;;;1.00;;
3066;SDS011;1544;48.834;9.194;2023-11-21T02:34:47;1.30;;;1.00;;
3066;SDS011;1544;48.834;9.194;2023-11-21T02:37:24;1.00;;;0.80;;
3066;SDS011;1544;48.834;9.194;2023-11-21T02:40:00;1.20;;;0.70;;
3066;SDS011;1544;48.834;9.194;2023-11-21T02:42:41;3.80;;;0.70;;
3066;SDS011;1544;48.834;9.194;2023-11-21T02:45:18;3.10;;;0.70;;
3066;SDS011;1544;48.834;9.194;2023-11-21T02:47:58;0.70;;;0.70;;
3066;SDS011;1544;48.834;9.194;2023-11-21T02:50:35;1.93;;;0.70;;
3066;SDS011;1544;48.834;9.194;2023-11-21T02:53:10;1.67;;;0.87;;
3066;SDS011;1544;48.834;9.194;2023-11-21T02:55:47;1.00;;;0.73;;
3066;SDS011;1544;48.834;9.194;2023-11-21T02:58:24;4.40;;;0.90;;
3066;SDS011;1544;48.834;9.194;2023-11-21T03:01:00;0.70;;;0.70;;
3066;SDS011;1544;48.834;9.194;2023-11-21T03:03:36;0.50;;;0.50;;
3066;SDS011;1544;48.834;9.194;2023-11-21T03:06:15;2.60;;;0.70;;
3066;SDS011;1544;48.834;9.194;2023-11-21T03:08:54;1.13;;;0.60;;
3066;SDS011;1544;48.834;9.194;2023-11-21T03:11:30;0.70;;;0.70;;
3066;SDS011;1544;48.834;9.194;2023-11-21T03:14:07;0.80;;;0.63;;
3066;SDS011;1544;48.834;9.194;2023-11-21T03:16:43;0.70;;;0.63;;
3066;SDS011;1544;48.834;9.194;2023-11-21T03:19:20;3.00;;;0.70;;
3066;SDS011;1544;48.834;9.194;2023-11-21T03:21:57;1.47;;;0.73;;
3066;SDS011;1544;48.834;9.194;2023-11-21T03:24:33;0.83;;;0.83;;
3066;SDS011;1544;48.834;9.194;2023-11-21T03:27:09;1.80;;;0.80;;
3066;SDS011;1544;48.834;9.194;2023-11-21T03:29:46;0.70;;;0.57;;
3066;SDS011;1544;48.834;9.194;2023-11-21T03:32:25;0.70;;;0.70;;
3066;SDS011;1544;48.834;9.194;2023-11-21T03:35:00;0.60;;;0.60;;
3066;SDS011;1544;48.834;9.194;2023-11-21T03:37:37;0.90;;;0.60;;
3066;SDS011;1544;48.834;9.194;2023-11-21T03:40:16;1.37;;;0.60;;
3066;SDS011;1544;48.834;9.194;2023-11-21T03:42:52;2.20;;;1.27;;
3066;SDS011;1544;48.834;9.194;2023-11-21T03:45:28;1.60;;;0.53;;
3066;SDS011;1544;48.834;9.194;2023-11-21T03:48:04;1.60;;;0.60;;
3066;SDS011;1544;48.834;9.194;2023-11-21T03:50:40;1.53;;;0.60;;
3066;SDS011;1544;48.834;9.194;2023-11-21T03:53:17;0.70;;;0.50;;
3066;SDS011;1544;48.834;9.194;2023-11-21T03:55:53;0.60;;;0.53;;
3066;SDS011;1544;48.834;9.194;2023-11-21T03:58:29;1.27;;;0.70;;
3066;SDS011;1544;48.834;9.194;2023-11-21T04:01:05;0.80;;;0.47;;
3066;SDS011;1544;48.834;9.194;2023-11-21T04:03:41;1.97;;;0.80;;
3066;SDS011;1544;48.834;9.194;2023-11-21T04:06:17;0.70;;;0.60;;
3066;SDS011;1544;48.834;9.194;2023-11-21T04:08:54;2.10;;;0.57;;
3066;SDS011;1544;48.834;9.194;2023-11-21T04:11:30;0.80;;;0.60;;
3066;SDS011;1544;48.834;9.194;2023-11-21T04:14:06;1.37;;;0.60;;
3066;SDS011;1544;48.834;9.194;2023-11-21T04:16:42;0.53;;;0.53;;
3066;SDS011;1544;48.834;9.194;2023-11-21T04:19:18;0.60;;;0.60;;
3066;SDS011;1544;48.834;9.194;2023-11-21T04:21:54;0.70;;;0.50;;
3066;SDS011;1544;48.834;9.194;2023-11-21T04:24:30;0.70;;;0.70;;
3066;SDS011;1544;48.834;9.194;2023-11-21T04:27:06;0.60;;;0.60;;
3066;SDS011;1544;48.834;9.194;2023-11-21T04:29:43;1.77;;;0.60;;
3066;SDS011;1544;48.834;9.194;2023-11-21T04:32:19;0.93;;;0.60;;
3066;SDS011;1544;48.834;9.194;2023-11-21T04:34:55;0.73;;;0.60;;
3066;SDS011;1544;48.834;9.194;2023-11-21T04:37:31;0.87;;;0.70;;
3066;SDS011;1544;48.834;9.194;2023-11-21T04:40:08;1.63;;;0.67;;
3066;SDS011;1544;48.834;9.194;2023-11-21T04:42:44;0.50;;;0.50;;
3066;SDS011;1544;48.834;9.194;2023-11-21T04:45:21;0.60;;;0.60;;
3066;SDS011;1544;48.834;9.194;2023-11-21T04:47:58;0.80;;;0.60;;
3066;SDS011;1544;48.834;9.194;2023-11-21T04:50:34;0.60;;;0.60;;
3066;SDS011;1544;48.834;9.194;2023-11-21T04:53:10;1.27;;;0.60;;
3066;SDS011;1544;48.834;9.194;2023-11-21T04:55:48;1.33;;;0.50;;
3066;SDS011;1544;48.834;9.194;2023-11-21T04:58:24;1.10;;;0.60;;
3066;SDS011;1544;48.834;9.194;2023-11-21T05:01:00;0.50;;;0.50;;
3066;SDS011;1544;48.834;9.194;2023-11-21T05:03:40;1.93;;;0.60;;
3066;SDS011;1544;48.834;9.194;2023-11-21T05:06:17;0.50;;;0.50;;
3066;SDS011;1544;48.834;9.194;2023-11-21T05:08:53;0.87;;;0.60;;
3066;SDS011;1544;48.834;9.194;2023-11-21T05:11:29;0.50;;;0.50;;
3066;SDS011;1544;48.834;9.194;2023-11-21T05:14:05;0.70;;;0.60;;
3066;SDS011;1544;48.834;9.194;2023-11-21T05:16:41;1.37;;;0.70;;
3066;SDS011;1544;48.834;9.194;2023-11-21T05:19:18;0.90;;;0.57;;
3066;SDS011;1544;48.834;9.194;2023-11-21T05:21:54;0.50;;;0.40;;
3066;SDS011;1544;48.834;9.194;2023-11-21T05:24:30;0.93;;;0.73;;
3066;SDS011;1544;48.834;9.194;2023-11-21T05:27:06;0.80;;;0.73;;
3066;SDS011;1544;48.834;9.194;2023-11-21T05:29:44;0.70;;;0.60;;
3066;SDS011;1544;48.834;9.194;2023-11-21T05:32:20;1.40;;;0.73;;
3066;SDS011;1544;48.834;9.194;2023-11-21T05:34:58;0.83;;;0.67;;
3066;SDS011;1544;48.834;9.194;2023-11-21T05:37:35;0.70;;;0.70;;
3066;SDS011;1544;48.834;9.194;2023-11-21T05:40:11;1.20;;;0.60;;
3066;SDS011;1544;48.834;9.194;2023-11-21T05:42:49;0.90;;;0.90;;
3066;SDS011;1544;48.834;9.194;2023-11-21T05:45:27;0.60;;;0.50;;
3066;SDS011;1544;48.834;9.194;2023-11-21T05:48:05;1.23;;;0.70;;
3066;SDS011;1544;48.834;9.194;2023-11-21T05:50:42;1.03;;;0.70;;
3066;SDS011;1544;48.834;9.194;2023-11-21T05:53:18;0.70;;;0.70;;
3066;SDS011;1544;48.834;9.194;2023-11-21T05:55:54;0.63;;;0.57;;
3066;SDS011;1544;48.834;9.194;2023-11-21T05:58:30;0.70;;;0.70;;
3066;SDS011;1544;48.834;9.194;2023-11-21T06:01:06;3.50;;;0.80;;
3066;SDS011;1544;48.834;9.194;2023-11-21T06:03:48;0.70;;;0.70;;
3066;SDS011;1544;48.834;9.194;2023-11-21T06:06:24;2.60;;;0.67;;
3066;SDS011;1544;48.834;9.194;2023-11-21T06:09:01;1.20;;;0.70;;
3066;SDS011;1544;48.834;9.194;2023-11-21T06:11:37;0.93;;;0.60;;
3066;SDS011;1544;48.834;9.194;2023-11-21T06:14:13;0.70;;;0.70;;
3066;SDS011;1544;48.834;9.194;2023-11-21T06:16:53;0.87;;;0.73;;
3066;SDS011;1544;48.834;9.194;2023-11-21T06:19:31;2.77;;;0.70;;
3066;SDS011;1544;48.834;9.194;2023-11-21T06:22:07;0.70;;;0.70;;
3066;SDS011;1544;48.834;9.194;2023-11-21T06:24:43;0.83;;;0.80;;
3066;SDS011;1544;48.834;9.194;2023-11-21T06:27:19;0.70;;;0.70;;
3066;SDS011;1544;48.834;9.194;2023-11-21T06:29:56;1.47;;;0.80;;
3066;SDS011;1544;48.834;9.194;2023-11-21T06:32:32;0.90;;;0.70;;
3066;SDS011;1544;48.834;9.194;2023-11-21T06:35:08;1.20;;;0.80;;
3066;SDS011;1544;48.834;9.194;2023-11-21T06:37:45;0.70;;;0.70;;
3066;SDS011;1544;48.834;9.194;2023-11-21T06:40:25;0.60;;;0.50;;
3066;SDS011;1544;48.834;9.194;2023-11-21T06:43:01;0.67;;;0.60;;
3066;SDS011;1544;48.834;9.194;2023-11-21T06:45:37;0.60;;;0.60;;
3066;SDS011;1544;48.834;9.194;2023-11-21T06:48:13;1.03;;;0.80;;
3066;SDS011;1544;48.834;9.194;2023-11-21T06:50:50;0.60;;;0.60;;
3066;SDS011;1544;48.834;9.194;2023-11-21T06:53:27;1.43;;;0.70;;
3066;SDS011;1544;48.834;9.194;2023-11-21T06:56:03;1.40;;;0.60;;
3066;SDS011;1544;48.834;9.194;2023-11-21T06:58:40;0.70;;;0.70;;
3066;SDS011;1544;48.834;9.194;2023-11-21T07:01:16;0.70;;;0.57;;
3066;SDS011;1544;48.834;9.194;2023-11-21T07:03:52;0.80;;;0.80;;
3066;SDS011;1544;48.834;9.194;2023-11-21T07:06:28;0.60;;;0.60;;
3066;SDS011;1544;48.834;9.194;2023-11-21T07:09:04;1.70;;;0.70;;
3066;SDS011;1544;48.834;9.194;2023-11-21T07:11:40;1.43;;;0.70;;
3066;SDS011;1544;48.834;9.194;2023-11-21T07:14:18;1.03;;;0.63;;
3066;SDS011;1544;48.834;9.194;2023-11-21T07:16:57;0.60;;;0.60;;
3066;SDS011;1544;48.834;9.194;2023-11-21T07:19:33;0.70;;;0.70;;
3066;SDS011;1544;48.834;9.194;2023-11-21T07:22:09;1.00;;;0.80;;
3066;SDS011;1544;48.834;9.194;2023-11-21T07:24:46;0.80;;;0.80;;
3066;SDS011;1544;48.834;9.194;2023-11-21T07:27:25;1.10;;;0.70;;
3066;SDS011;1544;48.834;9.194;2023-11-21T07:30:01;0.70;;;0.70;;
3066;SDS011;1544;48.834;9.194;2023-11-21T07:32:41;0.70;;;0.70;;
3066;SDS011;1544;48.834;9.194;2023-11-21T07:35:17;0.97;;;0.80;;
3066;SDS011;1544;48.834;9.194;2023-11-21T07:37:53;0.90;;;0.70;;
3066;SDS011;1544;48.834;9.194;2023-11-21T07:40:29;1.30;;;0.90;;
3066;SDS011;1544;48.834;9.194;2023-11-21T07:43:06;0.70;;;0.70;;
3066;SDS011;1544;48.834;9.194;2023-11-21T07:45:42;1.63;;;0.90;;
3066;SDS011;1544;48.834;9.194;2023-11-21T07:48:21;1.30;;;0.80;;
3066;SDS011;1544;48.834;9.194;2023-11-21T07:50:57;2.30;;;0.93;;
3066;SDS011;1544;48.834;9.194;2023-11-21T07:53:34;1.10;;;0.97;;
3066;SDS011;1544;48.834;9.194;2023-11-21T07:56:10;0.80;;;0.80;;
3066;SDS011;1544;48.834;9.194;2023-11-21T07:58:48;0.90;;;0.87;;
3066;SDS011;1544;48.834;9.194;2023-11-21T08:01:27;1.03;;;0.93;;
3066;SDS011;1544;48.834;9.194;2023-11-21T08:04:03;1.10;;;0.80;;
3066;SDS011;1544;48.834;9.194;2023-11-21T08:06:40;0.83;;;0.83;;
3066;SDS011;1544;48.834;9.194;2023-11-21T08:09:17;3.17;;;1.00;;
3066;SDS011;1544;48.834;9.194;2023-11-21T08:11:53;1.00;;;0.90;;
3066;SDS011;1544;48.834;9.194;2023-11-21T08:14:29;2.40;;;1.00;;
3066;SDS011;1544;48.834;9.194;2023-11-21T08:17:05;1.07;;;1.07;;
3066;SDS011;1544;48.834;9.194;2023-11-21T08:19:42;1.10;;;1.00;;
3066;SDS011;1544;48.834;9.194;2023-11-21T08:22:18;2.43;;;1.10;;
3066;SDS011;1544;48.834;9.194;2023-11-21T08:24:54;1.00;;;0.90;;
3066;SDS011;1544;48.834;9.194;2023-11-21T08:27:31;1.00;;;0.90;;
3066;SDS011;1544;48.834;9.194;2023-11-21T08:30:07;0.80;;;0.70;;
3066;SDS011;1544;48.834;9.194;2023-11-21T08:32:44;1.20;;;0.93;;
3066;SDS011;1544;48.834;9.194;2023-11-21T08:35:20;0.83;;;0.83;;
3066;SDS011;1544;48.834;9.194;2023-11-21T08:37:56;0.80;;;0.80;;
3066;SDS011;1544;48.834;9.194;2023-11-21T08:40:32;1.63;;;1.20;;
3066;SDS011;1544;48.834;9.194;2023-11-21T08:43:10;1.50;;;1.40;;
3066;SDS011;1544;48.834;9.194;2023-11-21T08:45:47;1.50;;;1.40;;
3066;SDS011;1544;48.834;9.194;2023-11-21T08:48:23;2.77;;;1.80;;
3066;SDS011;1544;48.834;9.194;2023-11-21T08:50:59;2.20;;;1.37;;
3066;SDS011;1544;48.834;9.194;2023-11-21T08:53:35;2.83;;;2.10;;
3066;SDS011;1544;48.834;9.194;2023-11-21T08:56:14;1.73;;;1.63;;
3066;SDS011;1544;48.834;9.194;2023-11-21T08:58:50;1.40;;;1.30;;
3066;SDS011;1544;48.834;9.194;2023-11-21T09:01:26;1.93;;;1.57;;
3066;SDS011;1544;48.834;9.194;2023-11-21T09:04:02;1.23;;;1.13;;
3066;SDS011;1544;48.834;9.194;2023-11-21T09:06:39;1.60;;;1.40;;
3066;SDS011;1544;48.834;9.194;2023-11-21T09:09:15;1.20;;;1.10;;
3066;SDS011;1544;48.834;9.194;2023-11-21T09:11:51;1.37;;;1.27;;
3066;SDS011;1544;48.834;9.194;2023-11-21T09:14:27;1.83;;;1.20;;
3066;SDS011;1544;48.834;9.194;2023-11-21T09:17:03;1.90;;;1.20;;
3066;SDS011;1544;48.834;9.194;2023-11-21T09:19:39;3.90;;;3.60;;
3066;SDS011;1544;48.834;9.194;2023-11-21T09:22:16;2.87;;;2.60;;
3066;SDS011;1544;48.834;9.194;2023-11-21T09:24:53;2.10;;;2.00;;
3066;SDS011;1544;48.834;9.194;2023-11-21T09:27:29;2.90;;;1.50;;
3066;SDS011;1544;48.834;9.194;2023-11-21T09:30:05;1.67;;;1.20;;
3066;SDS011;1544;48.834;9.194;2023-11-21T09:32:45;1.00;;;1.00;;
3066;SDS011;1544;48.834;9.194;2023-11-21T09:35:21;1.87;;;1.40;;
3066;SDS011;1544;48.834;9.194;2023-11-21T09:37:57;0.83;;;0.83;;
3066;SDS011;1544;48.834;9.194;2023-11-21T09:40:33;1.23;;;1.13;;
3066;SDS011;1544;48.834;9.194;2023-11-21T09:43:13;1.30;;;1.20;;
3066;SDS011;1544;48.834;9.194;2023-11-21T09:45:59;1.30;;;1.20;;
3066;SDS011;1544;48.834;9.194;2023-11-21T09:48:37;2.70;;;1.90;;
3066;SDS011;1544;48.834;9.194;2023-11-21T09:51:15;1.37;;;1.27;;
3066;SDS011;1544;48.834;9.194;2023-11-21T09:53:51;1.53;;;1.27;;
3066;SDS011;1544;48.834;9.194;2023-11-21T09:56:27;1.70;;;1.40;;
3066;SDS011;1544;48.834;9.194;2023-11-21T09:59:05;1.20;;;1.10;;
3066;SDS011;1544;48.834;9.194;2023-11-21T10:01:44;1.20;;;1.10;;
3066;SDS011;1544;48.834;9.194;2023-11-21T10:04:22;1.50;;;0.90;;
3066;SDS011;1544;48.834;9.194;2023-11-21T10:06:57;2.60;;;1.07;;
3066;SDS011;1544;48.834;9.194;2023-11-21T10:09:34;1.00;;;1.00;;
3066;SDS011;1544;48.834;9.194;2023-11-21T10:12:13;1.20;;;1.10;;
3066;SDS011;1544;48.834;9.194;2023-11-21T10:14:52;1.00;;;0.90;;
3066;SDS011;1544;48.834;9.194;2023-11-21T10:17:35;1.20;;;1.10;;
3066;SDS011;1544;48.834;9.194;2023-11-21T10:20:14;1.10;;;1.00;;
3066;SDS011;1544;48.834;9.194;2023-11-21T10:22:51;0.97;;;0.90;;
3066;SDS011;1544;48.834;9.194;2023-11-21T10:25:27;1.00;;;1.00;;
3066;SDS011;1544;48.834;9.194;2023-11-21T10:28:03;1.53;;;0.97;;
3066;SDS011;1544;48.834;9.194;2023-11-21T10:30:42;1.73;;;1.47;;
3066;SDS011;1544;48.834;9.194;2023-11-21T10:33:26;0.60;;;0.60;;
3066;SDS011;1544;48.834;9.194;2023-11-21T10:36:04;1.07;;;0.73;;
3066;SDS011;1544;48.834;9.194;2023-11-21T10:38:44;1.37;;;0.90;;
3066;SDS011;1544;48.834;9.194;2023-11-21T10:41:22;2.20;;;0.80;;
3066;SDS011;1544;48.834;9.194;2023-11-21T10:43:58;0.83;;;0.83;;
3066;SDS011;1544;48.834;9.194;2023-11-21T10:46:35;0.90;;;0.77;;
3066;SDS011;1544;48.834;9.194;2023-11-21T10:49:11;0.90;;;0.90;;
3066;SDS011;1544;48.834;9.194;2023-11-21T10:51:47;1.57;;;0.80;;
3066;SDS011;1544;48.834;9.194;2023-11-21T10:54:24;0.80;;;0.80;;
3066;SDS011;1544;48.834;9.194;2023-11-21T10:57:01;1.00;;;1.00;;
3066;SDS011;1544;48.834;9.194;2023-11-21T10:59:39;0.90;;;0.90;;
3066;SDS011;1544;48.834;9.194;2023-11-21T11:02:21;0.80;;;0.80;;
3066;SDS011;1544;48.834;9.194;2023-11-21T11:05:08;0.93;;;0.80;;
3066;SDS011;1544;48.834;9.194;2023-11-21T11:07:50;0.60;;;0.60;;
3066;SDS011;1544;48.834;9.194;2023-11-21T11:10:41;0.70;;;0.70;;
3066;SDS011;1544;48.834;9.194;2023-11-21T11:13:17;0.90;;;0.90;;
3066;SDS011;1544;48.834;9.194;2023-11-21T11:16:00;0.63;;;0.63;;
3066;SDS011;1544;48.834;9.194;2023-11-21T11:18:37;0.70;;;0.70;;
3066;SDS011;1544;48.834;9.194;2023-11-21T11:24:05;0.97;;;0.83;;
3066;SDS011;1544;48.834;9.194;2023-11-21T11:27:11;0.90;;;0.90;;
3066;SDS011;1544;48.834;9.194;2023-11-21T11:30:11;0.93;;;0.80;;
3066;SDS011;1544;48.834;9.194;2023-11-21T11:42:07;0.97;;;0.97;;
3066;SDS011;1544;48.834;9.194;2023-11-21T11:44:47;0.90;;;0.90;;
3066;SDS011;1544;48.834;9.194;2023-11-21T11:47:28;1.10;;;1.10;;
3066;SDS011;1544;48.834;9.194;2023-11-21T11:50:12;1.30;;;0.90;;
3066;SDS011;1544;48.834;9.194;2023-11-21T11:52:52;1.10;;;1.10;;
3066;SDS011;1544;48.834;9.194;2023-11-21T11:55:30;1.30;;;1.20;;
3066;SDS011;1544;48.834;9.194;2023-11-21T11:58:06;1.20;;;1.10;;
3066;SDS011;1544;48.834;9.194;2023-11-21T12:00:43;1.10;;;1.10;;
3066;SDS011;1544;48.834;9.194;2023-11-21T12:03:21;1.10;;;1.10;;
3066;SDS011;1544;48.834;9.194;2023-11-21T12:05:57;1.07;;;1.07;;
3066;SDS011;1544;48.834;9.194;2023-11-21T12:08:34;1.03;;;1.00;;
3066;SDS011;1544;48.834;9.194;2023-11-21T12:11:11;1.30;;;1.20;;
3066;SDS011;1544;48.834;9.194;2023-11-21T12:13:48;1.57;;;1.10;;
3066;SDS011;1544;48.834;9.194;2023-11-21T12:16:27;0.93;;;0.90;;
3066;SDS011;1544;48.834;9.194;2023-11-21T12:19:03;1.10;;;1.10;;
3066;SDS011;1544;48.834;9.194;2023-11-21T12:21:39;0.80;;;0.80;;
3066;SDS011;1544;48.834;9.194;2023-11-21T12:24:19;0.90;;;0.90;;
3066;SDS011;1544;48.834;9.194;2023-11-21T12:26:55;1.10;;;1.00;;
3066;SDS011;1544;48.834;9.194;2023-11-21T12:29:31;1.17;;;1.17;;
3066;SDS011;1544;48.834;9.194;2023-11-21T12:32:08;1.40;;;1.30;;
3066;SDS011;1544;48.834;9.194;2023-11-21T12:34:46;1.40;;;1.30;;
3066;SDS011;1544;48.834;9.194;2023-11-21T12:37:22;1.60;;;1.50;;
3066;SDS011;1544;48.834;9.194;2023-11-21T12:39:58;1.43;;;1.33;;
3066;SDS011;1544;48.834;9.194;2023-11-21T12:42:34;1.60;;;1.50;;
3066;SDS011;1544;48.834;9.194;2023-11-21T12:47:56;2.40;;;1.60;;
3066;SDS011;1544;48.834;9.194;2023-11-21T12:50:36;1.60;;;1.40;;
3066;SDS011;1544;48.834;9.194;2023-11-21T12:53:13;1.47;;;1.37;;
3066;SDS011;1544;48.834;9.194;2023-11-21T12:55:51;1.57;;;1.37;;
3066;SDS011;1544;48.834;9.194;2023-11-21T12:58:32;1.40;;;1.30;;
3066;SDS011;1544;48.834;9.194;2023-11-21T13:01:10;1.80;;;1.70;;
3066;SDS011;1544;48.834;9.194;2023-11-21T13:03:53;1.67;;;1.57;;
3066;SDS011;1544;48.834;9.194;2023-11-21T13:06:29;1.47;;;1.37;;
3066;SDS011;1544;48.834;9.194;2023-11-21T13:09:09;1.73;;;1.23;;
3066;SDS011;1544;48.834;9.194;2023-11-21T13:11:45;1.27;;;1.17;;
3066;SDS011;1544;48.834;9.194;2023-11-21T13:14:28;1.20;;;1.10;;
3066;SDS011;1544;48.834;9.194;2023-11-21T13:17:07;1.67;;;1.40;;
3066;SDS011;1544;48.834;9.194;2023-11-21T13:19:45;2.10;;;1.80;;
3066;SDS011;1544;48.834;9.194;2023-11-21T13:22:21;2.03;;;1.83;;
3066;SDS011;1544;48.834;9.194;2023-11-21T13:25:00;1.70;;;1.60;;
3066;SDS011;1544;48.834;9.194;2023-11-21T13:27:42;1.93;;;1.83;;
3066;SDS011;1544;48.834;9.194;2023-11-21T13:30:19;1.40;;;1.30;;
3066;SDS011;1544;48.834;9.194;2023-11-21T13:33:02;1.57;;;1.47;;
3066;SDS011;1544;48.834;9.194;2023-11-21T13:35:43;1.20;;;1.10;;
3066;SDS011;1544;48.834;9.194;2023-11-21T13:38:27;1.20;;;1.10;;
3066;SDS011;1544;48.834;9.194;2023-11-21T13:41:07;1.20;;;1.10;;
3066;SDS011;1544;48.834;9.194;2023-11-21T13:43:45;1.20;;;1.20;;
3066;SDS011;1544;48.834;9.194;2023-11-21T13:46:28;1.40;;;1.30;;
3066;SDS011;1544;48.834;9.194;2023-11-21T13:49:03;1.50;;;1.40;;
3066;SDS011;1544;48.834;9.194;2023-11-21T13:51:45;1.73;;;1.30;;
3066;SDS011;1544;48.834;9.194;2023-11-21T13:54:23;1.50;;;1.40;;
3066;SDS011;1544;48.834;9.194;2023-11-21T13:57:00;1.50;;;1.40;;
3066;SDS011;1544;48.834;9.194;2023-11-21T13:59:38;1.57;;;1.37;;
3066;SDS011;1544;48.834;9.194;2023-11-21T14:02:14;1.53;;;1.43;;
3066;SDS011;1544;48.834;9.194;2023-11-21T14:04:54;2.23;;;2.03;;
3066;SDS011;1544;48.834;9.194;2023-11-21T14:07:31;2.03;;;1.30;;
3066;SDS011;1544;48.834;9.194;2023-11-21T14:10:11;1.47;;;1.37;;
3066;SDS011;1544;48.834;9.194;2023-11-21T14:12:50;1.30;;;1.20;;
3066;SDS011;1544;48.834;9.194;2023-11-21T14:15:25;1.30;;;1.20;;
3066;SDS011;1544;48.834;9.194;2023-11-21T14:18:03;1.30;;;1.20;;
3066;SDS011;1544;48.834;9.194;2023-11-21T14:20:43;1.20;;;1.10;;
3066;SDS011;1544;48.834;9.194;2023-11-21T14:23:19;2.70;;;1.13;;
3066;SDS011;1544;48.834;9.194;2023-11-21T14:25:56;1.60;;;1.17;;
3066;SDS011;1544;48.834;9.194;2023-11-21T14:28:33;1.30;;;1.20;;
3066;SDS011;1544;48.834;9.194;2023-11-21T14:31:11;1.07;;;1.07;;
3066;SDS011;1544;48.834;9.194;2023-11-21T14:33:50;1.30;;;1.00;;
3066;SDS011;1544;48.834;9.194;2023-11-21T14:36:26;1.00;;;1.00;;
3066;SDS011;1544;48.834;9.194;2023-11-21T14:39:03;2.67;;;1.50;;
3066;SDS011;1544;48.834;9.194;2023-11-21T14:41:42;1.97;;;1.53;;
3066;SDS011;1544;48.834;9.194;2023-11-21T14:44:20;1.40;;;1.30;;
3066;SDS011;1544;48.834;9.194;2023-11-21T14:46:59;1.63;;;1.53;;
3066;SDS011;1544;48.834;9.194;2023-11-21T14:49:36;1.60;;;1.50;;
3066;SDS011;1544;48.834;9.194;2023-11-21T14:52:27;1.47;;;1.37;;
3066;SDS011;1544;48.834;9.194;2023-11-21T14:55:11;1.40;;;1.30;;
3066;SDS011;1544;48.834;9.194;2023-11-21T14:58:06;2.40;;;1.50;;
3066;SDS011;1544;48.834;9.194;2023-11-21T15:00:47;1.47;;;1.20;;
3066;SDS011;1544;48.834;9.194;2023-11-21T15:03:27;1.70;;;1.60;;
3066;SDS011;1544;48.834;9.194;2023-11-21T15:06:07;1.80;;;1.70;;
3066;SDS011;1544;48.834;9.194;2023-11-21T15:09:01;1.87;;;1.50;;
3066;SDS011;1544;48.834;9.194;2023-11-21T15:11:43;1.60;;;1.50;;
3066;SDS011;1544;48.834;9.194;2023-11-21T15:14:19;1.80;;;1.70;;
3066;SDS011;1544;48.834;9.194;2023-11-21T15:17:00;1.40;;;1.30;;
3066;SDS011;1544;48.834;9.194;2023-11-21T15:19:38;1.40;;;1.30;;
3066;SDS011;1544;48.834;9.194;2023-11-21T15:22:14;2.23;;;2.13;;
3066;SDS011;1544;48.834;9.194;2023-11-21T15:24:51;2.20;;;2.00;;
3066;SDS011;1544;48.834;9.194;2023-11-21T15:27:29;2.30;;;1.97;;
3066;SDS011;1544;48.834;9.194;2023-11-21T15:30:05;2.10;;;2.00;;
3066;SDS011;1544;48.834;9.194;2023-11-21T15:32:42;1.90;;;1.80;;
3066;SDS011;1544;48.834;9.194;2023-11-21T15:35:18;2.50;;;2.30;;
3066;SDS011;1544;48.834;9.194;2023-11-21T15:37:55;2.37;;;2.17;;
3066;SDS011;1544;48.834;9.194;2023-11-21T15:40:34;2.87;;;2.67;;
3066;SDS011;1544;48.834;9.194;2023-11-21T15:43:10;3.10;;;2.63;;
3066;SDS011;1544;48.834;9.194;2023-11-21T15:45:46;5.10;;;2.60;;
3066;SDS011;1544;48.834;9.194;2023-11-21T15:48:22;2.50;;;2.30;;
3066;SDS011;1544;48.834;9.194;2023-11-21T15:50:58;2.83;;;2.47;;
3066;SDS011;1544;48.834;9.194;2023-11-21T15:53:34;3.27;;;2.97;;
3066;SDS011;1544;48.834;9.194;2023-11-21T15:56:10;2.67;;;2.47;;
3066;SDS011;1544;48.834;9.194;2023-11-21T15:58:48;3.03;;;2.73;;
3066;SDS011;1544;48.834;9.194;2023-11-21T16:01:25;3.20;;;3.00;;
3066;SDS011;1544;48.834;9.194;2023-11-21T16:04:02;2.63;;;2.43;;
3066;SDS011;1544;48.834;9.194;2023-11-21T16:06:38;2.50;;;2.23;;
3066;SDS011;1544;48.834;9.194;2023-11-21T16:09:15;2.53;;;2.30;;
3066;SDS011;1544;48.834;9.194;2023-11-21T16:11:59;2.83;;;2.50;;
3066;SDS011;1544;48.834;9.194;2023-11-21T16:14:38;2.60;;;2.40;;
3066;SDS011;1544;48.834;9.194;2023-11-21T16:17:17;2.90;;;2.47;;
3066;SDS011;1544;48.834;9.194;2023-11-21T16:19:53;2.73;;;2.53;;
3066;SDS011;1544;48.834;9.194;2023-11-21T16:22:31;4.93;;;3.57;;
3066;SDS011;1544;48.834;9.194;2023-11-21T16:25:10;3.77;;;3.47;;
3066;SDS011;1544;48.834;9.194;2023-11-21T16:27:47;3.80;;;3.50;;
3066;SDS011;1544;48.834;9.194;2023-11-21T16:30:23;3.70;;;3.40;;
3066;SDS011;1544;48.834;9.194;2023-11-21T16:33:00;4.30;;;3.90;;